Portada
METAR-TAF:

METAR-TAF

Aeroports :

Armilla

Granada, Espanya

latitud: 37-08N, longitud: 003-38-08W, altitud: 700 m

Observació

L'informe es va fer fa 32 minuts, a les 11:30 UTC
Vent 6 kt del Oest/Nord-Oest, variant entre Sud-Oest i Nord
Temperatura 22°C
Humitat 41%
Pressió 1016 hPa
Visibilitat 10 km o més
Escasses núvols a una alçada de 4000 ft

METAR: LEGA 291130Z 29006KT 220V010 9999 FEW040 22/08 Q1016

Hora: 14:02 (12:02 UTC)

Pronòstic

L'informe es va fer fa 1 hora i 2 minuts, a les 11:00 UTC
Pronòstic vàlid del 29 a les 12 UTC al 30 a les 12 UTC
Vent 2 kt amb direcció variable
Visibilitat 10 km o més
Escasses núvols a una alçada de 3000 ft
Evolucionant progressivament
l' 29 a les 12 UTC al 29 a les 14 UTC
Vent 10 kt del Oest/Nord-Oest
Evolucionant progressivament
l' 29 a les 19 UTC al 29 a les 22 UTC
Vent 3 kt amb direcció variable

TAF: LEGA 291100Z 2912/3012 VRB02KT 9999 FEW030 TX25/2914Z TN11/3006Z BECMG 2912/2914 29010KT BECMG 2919/2922 VRB03KT

Observacions i pronòstics meteorològics de més de 4000 aeroports (METAR i TAF).

Les estacions disponibles són els punts grocs i vermells al mapa.

Posi el ratolí al punt desitjat per veure el nom de l'estació.

Feu clic per veure les observacions i els pronòstics meteorològics.

Per canviar el mapa: feu clic els botons verds amb una creu de color negre per apropar; al botó verd amb un guió per allunyar la imatge; o en les fletxes verdes per a mapes adjacents.


METAR-TAF: